Latest Weather Observations for Lameroo AWS

IDS60801

Issued at 2:01 pm CST Tuesday 25 July 2017 (issued every 30 minutes, with the page automatically refreshed every 10 minutes)

About weather observations | Map of weather stations | Latest weather observations for SA | Other Formats
Station Details ID: 025562 Name: AUSTIN PLAINS Lat: -35.38 Lon: 140.54 Height: 110.08 m
Data from the previous 72 hours. | See also: Recent months at Lameroo AWS
Date/Time
CST
Temp
°C
App
Temp
°C
Dew
Point
°C
Rel
Hum
%
Delta-T
°C
Wind Press
QNH
hPa
Press
MSL
hPa
Rain since
9am
mm
Dir  Spd
km/h
Gust
km/h
Spd
kts
Gust
kts
25/02:00pm 17.8 12.7 7.8 52 5.1 W 24 32 13 17 1015.9 1016.0 0.0
25/01:30pm 18.2 12.6 7.0 48 5.6 W 26 37 14 20 1015.7 1015.8 0.0
25/01:00pm 18.8 13.8 6.6 45 6.1 WSW 22 30 12 16 1015.9 1016.0 0.0
25/12:30pm 18.1 13.8 7.2 49 5.5 WNW 19 28 10 15 1016.2 1016.3 0.0
25/12:00pm 17.2 11.9 7.0 51 5.1 WNW 24 30 13 16 1016.5 1016.6 0.0
25/11:30am 17.0 11.6 6.5 50 5.2 WNW 24 32 13 17 1017.0 1017.2 0.0
25/11:00am 16.3 11.9 7.5 56 4.4 WNW 20 28 11 15 1017.3 1017.5 0.0
25/10:30am 14.8 10.5 7.8 63 3.5 WNW 20 26 11 14 1017.5 1017.7 0.0
25/10:00am 13.4 8.5 6.7 64 3.2 NW 22 28 12 15 1017.7 1017.9 0.0
25/09:30am 11.7 7.3 6.4 70 2.5 NW 19 26 10 14 1017.4 1017.6 0.0
25/09:00am 9.9 5.6 5.3 73 2.1 NW 17 22 9 12 1017.3 1017.5 0.0
25/08:30am 8.6 4.5 4.6 76 1.8 NNW 15 20 8 11 1017.1 1017.3 0.0
25/08:00am 7.2 3.5 4.2 81 1.3 NNW 13 19 7 10 1017.1 1017.3 0.0
25/07:30am 5.6 1.3 3.1 84 1.0 N 15 17 8 9 1016.9 1017.1 0.0
25/07:00am 5.7 1.4 3.2 84 1.0 N 15 20 8 11 1016.7 1016.8 0.0
25/06:30am 5.5 0.8 3.2 85 1.0 N 17 17 9 9 1016.5 1016.6 0.0
25/06:00am 6.0 1.7 3.3 83 1.1 N 15 17 8 9 1016.5 1016.6 0.0
25/05:30am 6.5 2.3 3.7 82 1.2 N 15 19 8 10 1016.2 1016.3 0.0
25/05:00am 6.8 2.6 3.8 81 1.3 N 15 17 8 9 1016.2 1016.3 0.0
25/04:30am 6.9 3.1 3.9 81 1.3 N 13 15 7 8 1016.4 1016.5 0.0
25/04:00am 7.3 3.2 4.1 80 1.4 N 15 17 8 9 1016.6 1016.7 0.0
25/03:30am 8.8 4.4 4.6 75 1.9 N 17 20 9 11 1016.9 1017.1 0.0
25/03:00am 8.5 3.7 4.9 78 1.6 N 19 20 10 11 1017.0 1017.2 0.0
25/02:30am 8.3 3.6 5.1 80 1.4 N 19 24 10 13 1017.3 1017.5 0.0
25/02:00am 7.8 3.8 5.1 83 1.2 N 15 19 8 10 1017.5 1017.7 0.0
25/01:30am 8.0 4.1 5.3 83 1.2 N 15 19 8 10 1017.8 1018.0 0.0
25/01:00am 7.5 3.5 5.1 85 1.1 N 15 17 8 9 1018.0 1018.2 0.0
25/12:30am 8.1 4.7 6.1 87 0.9 NNE 13 17 7 9 1018.1 1018.3 0.0
25/12:00am 6.6 3.0 4.8 88 0.8 NE 13 15 7 8 1018.5 1018.7 0.0
 
Date/Time
CST
Temp
°C
App
Temp
°C
Dew
Point
°C
Rel
Hum
%
Delta-T
°C
Wind Press
QNH
hPa
Press
MSL
hPa
Rain since
9am
mm
Dir  Spd
km/h
Gust
km/h
Spd
kts
Gust
kts
24/11:30pm 5.9 2.5 3.9 87 0.8 NE 11 13 6 7 1018.7 1018.9 0.0
24/11:00pm 6.3 2.9 4.0 85 1.0 NNE 11 13 6 7 1019.3 1019.5 0.0
24/10:30pm 7.3 4.1 5.0 85 1.0 N 11 13 6 7 1019.3 1019.5 0.0
24/10:00pm 7.0 4.2 5.0 87 0.9 NNE 9 11 5 6 1019.3 1019.5 0.0
24/09:30pm 6.5 3.9 4.2 85 1.0 NE 7 7 4 4 1019.5 1019.7 0.0
24/09:00pm 9.3 6.6 5.7 78 1.6 N 9 9 5 5 1019.4 1019.6 0.0
24/08:30pm 9.4 7.1 5.9 79 1.6 N 7 7 4 4 1019.4 1019.6 0.0
24/08:00pm 9.5 7.5 6.2 80 1.5 N 6 7 3 4 1019.5 1019.7 0.0
24/07:30pm 9.4 7.7 5.9 79 1.6 NNW 4 4 2 2 1019.3 1019.5 0.0
24/07:00pm 12.0 10.0 7.1 72 2.4 NNW 7 7 4 4 1019.2 1019.4 0.0
24/06:30pm 12.9 11.5 7.1 68 2.8 NNW 4 4 2 2 1019.2 1019.4 0.0
24/06:00pm 13.2 12.2 7.2 67 2.9 NNW 2 2 1 1 1018.9 1019.1 0.0
24/05:30pm 14.0 12.6 7.3 64 3.3 NNW 4 4 2 2 1018.8 1019.0 0.0
24/05:00pm 14.9 13.2 7.7 62 3.6 NW 6 7 3 4 1018.6 1018.8 0.0
24/04:30pm 15.6 13.6 8.8 64 3.5 WNW 9 13 5 7 1018.8 1019.0 0.0
24/04:00pm 16.5 13.0 7.4 55 4.6 NW 15 20 8 11 1018.8 1019.0 0.0
24/03:30pm 16.8 13.4 7.7 55 4.6 NW 15 20 8 11 1018.8 1019.0 0.0
24/03:00pm 16.8 12.5 8.0 56 4.5 NW 20 26 11 14 1019.0 1019.2 0.0
24/02:30pm 16.6 12.4 8.1 57 4.3 NNW 20 26 11 14 1019.2 1019.4 0.0
24/02:00pm 16.4 12.8 8.4 59 4.1 NW 17 26 9 14 1019.3 1019.5 0.0
24/01:30pm 14.8 10.9 8.5 66 3.2 NW 19 24 10 13 1019.7 1019.9 0.0
24/01:00pm 15.8 12.1 9.5 66 3.3 NW 19 26 10 14 1020.0 1020.2 0.0
24/12:30pm 15.4 12.1 9.7 69 3.0 NW 17 24 9 13 1020.4 1020.6 0.0
24/12:00pm 15.0 11.7 9.4 69 2.9 NW 17 24 9 13 1020.9 1021.1 0.0
24/11:30am 14.4 11.1 9.6 73 2.5 WNW 17 20 9 11 1021.4 1021.6 0.0
24/11:00am 13.7 10.1 9.7 77 2.1 NW 19 24 10 13 1021.8 1022.0 0.0
24/10:30am 13.0 9.4 10.0 82 1.5 WNW 19 24 10 13 1022.2 1022.4 0.0
24/10:00am 11.9 8.2 9.6 86 1.2 WNW 19 24 10 13 1022.0 1022.2 0.0
24/09:30am 10.7 8.0 10.2 97 0.3 WNW 15 17 8 9 1022.0 1022.2 0.0
24/09:00am 9.2 - - - - NW 15 19 8 10 1021.9 1022.1 0.6
24/08:30am 7.5 - - - - NNW 9 13 5 7 1021.8 1022.0 0.6
24/08:00am 5.7 - - - - NW 11 13 6 7 1021.6 1021.8 0.6
24/07:30am 4.0 - - - - NW 13 15 7 8 1021.6 1021.8 0.6
24/07:00am 3.6 - - - - NW 13 13 7 7 1021.3 1021.5 0.6
24/06:30am 3.8 - - - - NW 13 15 7 8 1021.0 1021.2 0.6
24/06:00am 3.3 - - - - NW 13 15 7 8 1020.6 1020.8 0.6
24/05:30am 3.9 - - - - NW 13 15 7 8 1020.1 1020.3 0.4
24/05:00am 4.0 - - - - NW 11 13 6 7 1019.8 1020.0 0.4
24/04:30am 4.2 - - - - NW 17 17 9 9 1019.9 1020.1 0.4
24/04:00am 4.5 - - - - NW 13 15 7 8 1019.8 1020.0 0.4
24/03:30am 4.3 - - - - NW 13 13 7 7 1019.8 1020.0 0.4
24/03:00am 4.8 - - - - WNW 13 15 7 8 1019.9 1020.1 0.4
24/02:30am 5.0 - - - - NW 13 15 7 8 1019.9 1020.1 0.4
24/02:00am 5.6 - - - - WNW 13 15 7 8 1019.9 1020.1 0.4
24/01:30am 5.7 - - - - NW 13 15 7 8 1019.9 1020.1 0.4
24/01:00am 6.7 - - - - WNW 13 17 7 9 1019.8 1020.0 0.4
24/12:30am 6.4 - - - - NW 11 11 6 6 1019.9 1020.1 0.4
24/12:00am 7.4 - - - - WNW 13 15 7 8 1019.9 1020.1 0.4
 
Date/Time
CST
Temp
°C
App
Temp
°C
Dew
Point
°C
Rel
Hum
%
Delta-T
°C
Wind Press
QNH
hPa
Press
MSL
hPa
Rain since
9am
mm
Dir  Spd
km/h
Gust
km/h
Spd
kts
Gust
kts
23/11:30pm 7.9 - - - - WNW 15 17 8 9 1019.8 1020.0 0.4
23/11:00pm 8.2 - - - - WNW 13 17 7 9 1019.8 1020.0 0.2
23/10:30pm 8.6 - - - - WNW 15 19 8 10 1019.6 1019.8 0.2
23/10:00pm 8.5 - - - - WNW 15 17 8 9 1019.4 1019.6 0.2
23/09:30pm 8.8 - - - - WNW 15 17 8 9 1019.2 1019.4 0.2
23/09:00pm 7.5 - - - - WNW 13 15 7 8 1019.2 1019.4 0.2
23/08:30pm 7.4 - - - - WNW 13 13 7 7 1019.1 1019.3 0.2
23/08:00pm 7.8 - - - - NW 11 11 6 6 1018.9 1019.1 0.2
23/07:30pm 8.5 5.9 7.6 94 0.4 W 11 13 6 7 1018.6 1018.8 0.2
23/07:00pm 8.7 6.0 7.2 90 0.7 W 11 13 6 7 1018.3 1018.5 0.2
23/06:30pm 11.1 8.2 9.7 91 0.7 WSW 15 19 8 10 1018.1 1018.3 0.2
23/06:00pm 11.3 8.8 9.6 89 0.9 W 13 15 7 8 1017.8 1018.0 0.0
23/05:30pm 11.2 8.2 9.3 88 1.0 W 15 17 8 9 1017.2 1017.4 0.0
23/05:00pm 11.9 8.2 10.0 88 1.0 W 20 24 11 13 1017.1 1017.3 0.0
23/04:30pm 13.0 9.4 10.0 82 1.5 W 19 26 10 14 1016.9 1017.1 0.0
23/04:00pm 14.1 9.4 9.3 73 2.5 W 24 32 13 17 1016.6 1016.7 0.0
23/03:30pm 14.5 8.6 9.1 70 2.8 W 30 41 16 22 1016.3 1016.4 0.0
23/03:00pm 14.4 10.1 10.6 78 2.0 WNW 24 32 13 17 1016.0 1016.1 0.0
23/02:30pm 13.9 8.7 10.3 79 1.9 WNW 28 35 15 19 1015.9 1016.0 0.0
23/02:00pm 15.6 10.1 9.3 66 3.3 W 28 35 15 19 1015.6 1015.7 0.0
23/01:30pm 14.8 8.9 9.2 69 2.9 W 30 37 16 20 1015.8 1015.9 0.0
23/01:00pm 14.1 9.4 10.5 79 1.9 W 26 33 14 18 1015.9 1016.0 0.0
23/12:52pm 13.8 8.0 11.5 86 1.2 W 33 52 18 28 1015.9 1016.0 0.0
23/12:30pm 15.5 9.2 9.0 65 3.3 W 32 41 17 22 1015.9 1016.0 0.0
23/12:00pm 15.7 8.5 9.1 65 3.4 W 37 48 20 26 1016.3 1016.4 0.0
23/11:30am 15.9 9.2 9.6 66 3.3 W 35 43 19 23 1016.4 1016.5 0.0
23/11:00am 15.2 8.4 9.3 68 3.1 W 35 46 19 25 1016.7 1016.8 0.0
23/10:30am 14.8 9.5 9.8 72 2.6 WNW 28 39 15 21 1016.7 1016.8 0.0
23/10:00am 13.9 9.7 9.7 76 2.2 WNW 22 30 12 16 1016.8 1017.0 0.0
23/09:30am 12.7 9.0 9.3 80 1.7 NW 19 24 10 13 1016.6 1016.7 0.0
23/09:00am 11.6 8.2 9.0 84 1.3 NW 17 20 9 11 1016.3 1016.4 0.0
23/08:30am 9.9 6.2 8.0 88 0.9 NW 17 22 9 12 1016.1 1016.2 0.0
23/08:00am 8.9 5.4 7.4 90 0.7 WNW 15 19 8 10 1015.9 1016.0 0.0
23/07:30am 8.6 4.3 7.1 90 0.7 NW 19 24 10 13 1015.6 1015.7 0.0
23/07:00am 7.9 3.9 6.7 92 0.6 NW 17 20 9 11 1015.4 1015.5 0.0
23/06:30am 6.5 2.5 6.5 100 0.0 NW 17 19 9 10 1015.4 1015.5 0.0
23/06:00am 5.4 1.7 4.4 93 0.4 NW 13 15 7 8 1015.1 1015.2 0.0
23/05:30am 5.5 1.4 4.2 91 0.6 NW 15 19 8 10 1014.8 1014.9 0.0
23/05:00am 6.3 1.9 4.6 89 0.7 NW 17 19 9 10 1014.7 1014.8 0.0
23/04:30am 5.2 0.9 3.2 87 0.8 NW 15 17 8 9 1014.6 1014.7 0.0
23/04:00am 5.7 1.0 3.4 85 1.0 NW 17 19 9 10 1014.7 1014.8 0.0
23/03:30am 6.0 1.3 3.0 81 1.3 WNW 17 19 9 10 1014.6 1014.7 0.0
23/03:00am 5.6 0.6 3.4 86 0.9 WNW 19 22 10 12 1014.7 1014.8 0.0
23/02:30am 4.7 0.2 2.4 85 0.9 WNW 15 15 8 8 1014.7 1014.8 0.0
23/02:00am 5.1 0.7 2.6 84 1.0 NW 15 17 8 9 1014.6 1014.7 0.0
23/01:30am 5.6 1.6 2.6 81 1.2 NW 13 15 7 8 1014.6 1014.7 0.0
23/01:00am 5.7 0.9 2.7 81 1.2 NW 17 17 9 9 1014.5 1014.6 0.0
23/12:30am 5.8 1.0 2.8 81 1.2 NW 17 17 9 9 1014.6 1014.7 0.0
23/12:00am 5.9 1.9 3.1 82 1.2 NW 13 15 7 8 1014.7 1014.8 0.0
 
Date/Time
CST
Temp
°C
App
Temp
°C
Dew
Point
°C
Rel
Hum
%
Delta-T
°C
Wind Press
QNH
hPa
Press
MSL
hPa
Rain since
9am
mm
Dir  Spd
km/h
Gust
km/h
Spd
kts
Gust
kts
22/11:30pm 6.3 1.9 2.9 79 1.4 NW 15 15 8 8 1014.6 1014.7 0.0
22/11:00pm 6.3 1.9 2.8 78 1.5 NW 15 17 8 9 1014.7 1014.8 0.0
22/10:30pm 7.6 4.1 3.5 75 1.8 NNW 11 13 6 7 1014.5 1014.6 0.0
22/10:00pm 7.8 4.6 3.3 73 1.9 NNW 9 11 5 6 1014.7 1014.8 0.0
22/09:30pm 9.4 6.3 3.8 68 2.5 NW 9 11 5 6 1014.7 1014.8 0.0
22/09:00pm 9.1 5.7 4.1 71 2.2 NW 11 11 6 6 1014.7 1014.8 0.0
22/08:30pm 9.3 5.5 3.7 68 2.4 WNW 13 15 7 8 1014.7 1014.8 0.0
22/08:00pm 9.9 6.1 3.9 66 2.7 NW 13 13 7 7 1014.7 1014.8 0.0
22/07:30pm 10.4 7.0 4.1 65 2.8 NW 11 13 6 7 1014.6 1014.7 0.0
22/07:00pm 10.7 8.2 4.6 66 2.8 NW 7 11 4 6 1014.5 1014.6 0.0
22/06:30pm 9.8 6.2 4.8 71 2.3 NW 13 15 7 8 1014.2 1014.3 0.0
22/06:00pm 10.6 6.7 5.2 69 2.5 N 15 15 8 8 1014.0 1014.1 0.0
22/05:30pm 11.9 8.4 5.5 65 3.0 N 13 15 7 8 1013.8 1013.9 0.0
22/05:00pm 14.1 11.1 6.2 59 3.8 N 11 13 6 7 1013.6 1013.8 0.0
22/04:30pm 16.2 12.9 6.3 52 4.8 NNW 13 15 7 8 1013.6 1013.8 0.0
22/04:00pm 17.5 12.9 5.4 45 5.9 NW 19 24 10 13 1013.5 1013.7 0.0
22/03:30pm 17.8 13.0 5.7 45 5.9 NW 20 28 11 15 1013.5 1013.7 0.0
22/03:00pm 17.8 13.2 5.4 44 6.0 WNW 19 28 10 15 1014.0 1014.1 0.0
22/02:30pm 17.6 10.8 4.9 43 6.1 NW 30 41 16 22 1014.2 1014.3 0.0

Other Formats:

Comma delimited format used in spreadsheet applications
http://www.bom.gov.au/fwo/IDS60801/IDS60801.94690.axf

JavaScript Object Notation format (JSON) in row-major order
http://www.bom.gov.au/fwo/IDS60801/IDS60801.94690.json